Time;durP1;ratioP1;P1;durP2;ratioP2;P2;SDS_P1;SDS_P2;PMS_P1;PMS_P2;Temp;Humidity;BMP_temperature;BMP_pressure;BME280_temperature;BME280_humidity;BME280_pressure;Samples;Min_cycle;Max_cycle;Signal;HPM_P1;HPM_P2
2023/07/19 00:00:10;;;;;;;4.57;2.10;;;19.90;99.90;;;;;;5012050;28;20026;-76
2023/07/19 00:02:36;;;;;;;3.10;2.13;;;19.90;99.90;;;;;;5012025;28;20606;-75
2023/07/19 00:05:01;;;;;;;3.17;2.00;;;19.80;99.90;;;;;;5011980;28;20033;-74
2023/07/19 00:07:27;;;;;;;2.55;2.35;;;19.90;99.90;;;;;;5012377;28;20022;-75
2023/07/19 00:09:52;;;;;;;3.97;1.85;;;19.90;99.90;;;;;;5012249;28;20022;-77
2023/07/19 00:12:18;;;;;;;4.18;2.33;;;19.90;99.90;;;;;;5012549;28;20077;-77
2023/07/19 00:14:44;;;;;;;7.45;2.80;;;19.90;99.90;;;;;;5012777;28;20022;-77
2023/07/19 00:17:09;;;;;;;5.57;2.13;;;19.90;99.90;;;;;;5019635;28;20033;-79
2023/07/19 00:19:35;;;;;;;4.15;2.10;;;19.90;99.90;;;;;;5022658;28;20029;-79
2023/07/19 00:22:00;;;;;;;4.28;2.20;;;19.90;99.90;;;;;;5020365;28;20018;-75
2023/07/19 00:24:26;;;;;;;3.42;2.22;;;20.00;99.90;;;;;;5014633;28;20112;-75
2023/07/19 00:26:52;;;;;;;2.72;1.75;;;20.00;99.90;;;;;;5015030;28;20057;-74
2023/07/19 00:29:18;;;;;;;4.47;2.15;;;19.90;99.90;;;;;;5015865;28;20022;-75
2023/07/19 00:31:43;;;;;;;3.55;2.20;;;19.80;99.90;;;;;;5015888;28;20100;-76
2023/07/19 00:34:09;;;;;;;6.13;1.90;;;19.80;99.90;;;;;;5014565;28;20026;-76
2023/07/19 00:36:35;;;;;;;5.50;2.85;;;19.70;99.90;;;;;;5014882;28;20026;-77
2023/07/19 00:39:01;;;;;;;5.00;3.13;;;19.70;99.90;;;;;;5014649;28;20022;-76
2023/07/19 00:41:26;;;;;;;4.72;2.22;;;19.70;99.90;;;;;;5014350;28;20502;-76
2023/07/19 00:43:52;;;;;;;4.57;2.25;;;19.80;99.90;;;;;;5014444;28;20033;-74
2023/07/19 00:46:19;;;;;;;7.05;2.70;;;19.70;99.90;;;;;;5015840;28;20032;-75
2023/07/19 00:48:45;;;;;;;6.80;2.13;;;19.70;99.90;;;;;;5015649;28;20041;-76
2023/07/19 00:51:11;;;;;;;2.85;1.67;;;19.60;99.90;;;;;;5014617;28;20029;-77
2023/07/19 00:53:38;;;;;;;4.28;2.20;;;19.60;99.90;;;;;;5015670;28;20054;-76
2023/07/19 00:56:04;;;;;;;10.00;2.67;;;19.70;99.90;;;;;;5014676;28;20080;-76
2023/07/19 00:58:31;;;;;;;8.65;2.38;;;19.70;99.90;;;;;;5014626;28;20034;-76
2023/07/19 01:00:58;;;;;;;6.20;3.25;;;19.60;99.90;;;;;;5015820;28;20026;-75
2023/07/19 01:03:24;;;;;;;3.70;2.42;;;19.70;99.90;;;;;;5015498;28;20499;-74
2023/07/19 01:05:50;;;;;;;9.15;2.20;;;19.70;99.90;;;;;;5014349;28;20046;-76
2023/07/19 01:08:18;;;;;;;8.75;2.30;;;19.70;99.90;;;;;;5015571;28;20029;-75
2023/07/19 01:10:43;;;;;;;5.00;2.40;;;19.70;99.90;;;;;;5013665;28;20026;-74
2023/07/19 01:13:11;;;;;;;5.57;1.90;;;19.80;99.90;;;;;;5015058;28;20487;-76
2023/07/19 01:15:37;;;;;;;2.60;1.75;;;19.90;99.90;;;;;;5014968;28;20077;-77
2023/07/19 01:18:03;;;;;;;4.38;1.63;;;20.00;99.90;;;;;;5015417;28;20399;-75
2023/07/19 01:20:29;;;;;;;4.95;2.30;;;20.00;99.90;;;;;;5013482;28;20030;-76
2023/07/19 01:22:56;;;;;;;4.50;2.55;;;19.90;99.90;;;;;;5013813;28;20438;-76
2023/07/19 01:25:23;;;;;;;3.80;1.90;;;20.00;99.90;;;;;;5014987;28;20022;-75
2023/07/19 01:27:49;;;;;;;4.57;1.90;;;19.90;99.90;;;;;;5013709;28;20025;-75
2023/07/19 01:30:15;;;;;;;4.70;1.70;;;19.90;99.90;;;;;;5013588;28;20034;-76
2023/07/19 01:32:40;;;;;;;5.75;2.03;;;19.90;99.90;;;;;;5015009;28;20045;-77
2023/07/19 01:35:07;;;;;;;4.65;1.92;;;19.90;99.90;;;;;;5014762;28;20399;-77
2023/07/19 01:37:32;;;;;;;2.38;1.88;;;19.90;99.90;;;;;;5013587;28;20113;-75
2023/07/19 01:40:00;;;;;;;2.80;1.63;;;19.90;99.90;;;;;;5014547;28;20038;-76
2023/07/19 01:42:26;;;;;;;2.22;1.65;;;19.90;99.90;;;;;;5013440;28;20026;-76
2023/07/19 01:44:53;;;;;;;5.53;2.00;;;19.90;99.90;;;;;;5014702;28;20076;-76
2023/07/19 01:47:18;;;;;;;2.95;1.83;;;19.90;99.90;;;;;;5014596;28;20022;-76
2023/07/19 01:49:44;;;;;;;3.38;1.85;;;19.90;99.90;;;;;;5014308;28;20057;-75
2023/07/19 01:52:10;;;;;;;3.05;2.00;;;19.90;99.90;;;;;;5013183;28;20022;-75
2023/07/19 01:54:35;;;;;;;3.75;2.33;;;19.80;99.90;;;;;;5014089;28;20025;-75
2023/07/19 01:57:01;;;;;;;4.80;2.00;;;19.80;99.90;;;;;;5014251;28;20380;-75
2023/07/19 01:59:26;;;;;;;4.57;1.90;;;19.70;99.90;;;;;;5014180;28;20507;-75
2023/07/19 02:01:53;;;;;;;3.05;2.03;;;19.70;99.90;;;;;;5014210;28;20416;-76
2023/07/19 02:04:19;;;;;;;7.88;2.33;;;19.60;99.90;;;;;;5014131;28;20037;-76
2023/07/19 02:06:45;;;;;;;2.08;1.38;;;19.60;99.90;;;;;;5013167;28;20041;-75
2023/07/19 02:09:11;;;;;;;3.72;1.42;;;19.50;99.90;;;;;;5014193;28;20030;-74
2023/07/19 02:11:36;;;;;;;1.98;1.65;;;19.50;99.90;;;;;;5014335;28;20392;-76
2023/07/19 02:14:03;;;;;;;5.38;3.80;;;19.50;99.90;;;;;;5014179;28;20025;-76
2023/07/19 02:16:29;;;;;;;2.95;1.85;;;19.50;99.90;;;;;;5014276;28;20018;-74
2023/07/19 02:18:55;;;;;;;7.07;2.03;;;19.50;99.90;;;;;;5013752;28;20018;-75
2023/07/19 02:21:20;;;;;;;4.93;2.63;;;19.40;99.90;;;;;;5013789;28;20040;-75
2023/07/19 02:23:46;;;;;;;6.80;2.58;;;19.30;99.90;;;;;;5012346;28;20026;-75
2023/07/19 02:26:11;;;;;;;3.72;1.65;;;19.30;99.90;;;;;;5012387;28;20543;-75
2023/07/19 02:28:37;;;;;;;5.57;2.17;;;19.30;99.90;;;;;;5013562;28;20022;-75
2023/07/19 02:31:03;;;;;;;2.35;1.73;;;19.30;99.90;;;;;;4995050;28;20395;-75
2023/07/19 02:33:29;;;;;;;2.97;1.98;;;19.30;99.90;;;;;;5026940;23;20050;-78
2023/07/19 02:35:56;;;;;;;4.55;1.85;;;19.30;99.90;;;;;;5013263;28;20463;-79
2023/07/19 02:38:23;;;;;;;5.10;1.65;;;19.30;99.90;;;;;;5013713;28;20368;-77
2023/07/19 02:40:49;;;;;;;2.83;1.70;;;19.30;99.90;;;;;;5013843;28;20026;-77
2023/07/19 02:43:15;;;;;;;6.72;2.25;;;19.30;99.90;;;;;;5014560;28;20026;-77
2023/07/19 02:45:41;;;;;;;4.43;1.52;;;19.40;99.90;;;;;;5012516;28;20067;-77
2023/07/19 02:48:07;;;;;;;7.95;2.33;;;19.30;99.90;;;;;;5013705;28;20021;-77
2023/07/19 02:50:32;;;;;;;8.85;2.17;;;19.30;99.90;;;;;;5014022;28;20424;-79
2023/07/19 02:52:58;;;;;;;6.40;2.45;;;19.40;99.90;;;;;;5014282;28;20372;-78
2023/07/19 02:55:24;;;;;;;11.02;3.75;;;19.30;99.90;;;;;;5013098;28;20048;-77
2023/07/19 02:57:50;;;;;;;2.63;1.77;;;19.40;99.90;;;;;;5012854;28;20113;-78
2023/07/19 03:00:15;;;;;;;7.90;2.13;;;19.40;99.90;;;;;;5014045;28;20022;-78
2023/07/19 03:02:41;;;;;;;2.67;1.98;;;19.40;99.90;;;;;;5013159;28;20022;-78
2023/07/19 03:05:07;;;;;;;3.10;1.70;;;19.30;99.90;;;;;;5012665;28;20049;-79
2023/07/19 03:07:33;;;;;;;2.90;1.48;;;19.30;99.90;;;;;;5013101;28;20506;-78
2023/07/19 03:09:59;;;;;;;5.57;2.22;;;19.30;99.90;;;;;;5012433;28;20037;-78
2023/07/19 03:12:25;;;;;;;8.45;2.45;;;19.30;99.90;;;;;;5012737;28;20064;-78
2023/07/19 03:14:50;;;;;;;6.47;2.08;;;19.30;99.90;;;;;;5012613;28;20034;-78
2023/07/19 03:17:16;;;;;;;4.82;2.10;;;19.30;99.90;;;;;;5014068;28;20075;-78
2023/07/19 03:19:41;;;;;;;2.88;1.38;;;19.40;99.90;;;;;;5013638;28;20026;-78
2023/07/19 03:22:07;;;;;;;7.68;2.90;;;19.50;99.90;;;;;;5012553;28;20191;-78
2023/07/19 03:24:33;;;;;;;2.13;1.33;;;19.40;99.90;;;;;;5013385;28;20022;-78
2023/07/19 03:26:59;;;;;;;4.78;2.28;;;19.40;99.90;;;;;;5013775;28;20419;-78
2023/07/19 03:29:25;;;;;;;9.25;2.65;;;19.40;99.90;;;;;;5012456;28;20025;-78
2023/07/19 03:31:50;;;;;;;4.70;1.77;;;19.30;99.90;;;;;;5013816;28;20101;-78
2023/07/19 03:34:16;;;;;;;5.50;1.73;;;19.30;99.90;;;;;;5013419;28;20034;-78
2023/07/19 03:36:42;;;;;;;2.17;1.67;;;19.30;99.90;;;;;;5013527;28;20022;-78
2023/07/19 03:39:07;;;;;;;6.53;1.80;;;19.30;99.90;;;;;;5013733;28;20484;-79
2023/07/19 03:41:33;;;;;;;3.70;1.67;;;19.30;99.90;;;;;;5012120;28;20033;-78
2023/07/19 03:43:58;;;;;;;10.13;1.85;;;19.40;99.90;;;;;;5013442;28;20033;-77
2023/07/19 03:46:24;;;;;;;6.60;1.80;;;19.40;99.90;;;;;;5012527;28;20022;-78
2023/07/19 03:48:49;;;;;;;2.47;1.33;;;19.50;99.90;;;;;;5012972;28;20022;-78
2023/07/19 03:51:15;;;;;;;4.55;2.80;;;19.50;99.90;;;;;;5012425;28;20026;-78
2023/07/19 03:53:41;;;;;;;4.55;1.77;;;19.50;99.90;;;;;;5013171;28;20616;-78
2023/07/19 03:56:06;;;;;;;1.98;1.45;;;19.50;99.90;;;;;;5013577;28;20030;-78
2023/07/19 03:58:32;;;;;;;4.90;1.85;;;19.50;99.90;;;;;;5011904;28;20053;-79
2023/07/19 04:00:59;;;;;;;5.50;1.85;;;19.50;99.90;;;;;;5013493;28;20025;-79
2023/07/19 04:03:26;;;;;;;4.75;1.73;;;19.60;99.90;;;;;;5013391;28;20632;-78
2023/07/19 04:05:53;;;;;;;6.82;2.00;;;19.60;99.90;;;;;;5012201;28;20470;-79
2023/07/19 04:08:18;;;;;;;1.50;1.40;;;19.60;99.90;;;;;;5011826;28;20030;-78
2023/07/19 04:10:44;;;;;;;3.35;1.85;;;19.50;99.90;;;;;;5013092;28;20061;-79
2023/07/19 04:13:11;;;;;;;3.25;1.60;;;19.60;99.90;;;;;;5011710;28;20488;-79
2023/07/19 04:15:37;;;;;;;3.75;1.90;;;19.50;99.90;;;;;;5011924;28;20084;-78
2023/07/19 04:18:03;;;;;;;6.38;2.55;;;19.50;99.90;;;;;;5011635;28;20026;-78
2023/07/19 04:20:31;;;;;;;5.03;2.08;;;19.50;99.90;;;;;;5012930;28;20121;-78
2023/07/19 04:22:57;;;;;;;4.53;1.80;;;19.50;99.90;;;;;;5013169;28;20026;-77
2023/07/19 04:25:24;;;;;;;4.80;1.83;;;19.50;99.90;;;;;;5012069;28;20026;-78
2023/07/19 04:27:51;;;;;;;8.40;1.83;;;19.50;99.90;;;;;;5011750;28;20060;-78
2023/07/19 04:30:16;;;;;;;5.25;2.00;;;19.50;99.90;;;;;;5012688;28;20038;-78
2023/07/19 04:32:42;;;;;;;3.50;1.73;;;19.40;99.90;;;;;;5011776;28;20040;-77
2023/07/19 04:35:08;;;;;;;4.43;2.10;;;19.40;99.90;;;;;;5011517;28;20034;-77
2023/07/19 04:37:35;;;;;;;5.30;1.63;;;19.50;99.90;;;;;;5010593;28;20030;-77
2023/07/19 04:40:00;;;;;;;1.25;1.10;;;19.60;99.90;;;;;;5010519;28;20120;-77
2023/07/19 04:42:27;;;;;;;2.97;1.88;;;20.00;99.90;;;;;;5010505;28;20547;-78
2023/07/19 04:44:52;;;;;;;2.15;1.90;;;21.20;99.90;;;;;;5010832;28;20045;-77
2023/07/19 04:47:18;;;;;;;4.68;2.00;;;22.30;99.90;;;;;;5012702;28;20108;-77
2023/07/19 04:49:43;;;;;;;4.90;1.98;;;22.60;99.90;;;;;;5012192;28;20109;-77
2023/07/19 04:52:09;;;;;;;4.53;2.13;;;22.50;99.90;;;;;;5010668;28;20496;-77
2023/07/19 04:54:35;;;;;;;4.38;1.90;;;23.20;99.90;;;;;;5010493;28;20030;-77
2023/07/19 04:57:00;;;;;;;4.97;2.17;;;22.90;99.90;;;;;;5010591;28;20026;-77
2023/07/19 04:59:26;;;;;;;5.13;2.53;;;22.60;99.90;;;;;;5011310;28;20050;-77
2023/07/19 05:01:52;;;;;;;3.88;2.58;;;22.00;99.90;;;;;;5012972;28;20480;-77
2023/07/19 05:04:18;;;;;;;3.08;1.52;;;22.00;99.90;;;;;;5013352;28;20018;-77
2023/07/19 05:06:43;;;;;;;6.55;2.47;;;21.70;99.90;;;;;;5015093;28;20033;-76
2023/07/19 05:09:10;;;;;;;4.07;1.60;;;22.00;99.90;;;;;;5013625;28;20049;-77
2023/07/19 05:11:36;;;;;;;3.97;2.10;;;22.30;99.90;;;;;;5015210;28;20026;-77
2023/07/19 05:14:02;;;;;;;3.03;1.73;;;22.30;99.90;;;;;;5014991;28;20022;-77
2023/07/19 05:16:28;;;;;;;6.00;1.83;;;22.20;99.90;;;;;;5015113;28;20045;-77
2023/07/19 05:18:53;;;;;;;4.57;1.50;;;22.60;99.90;;;;;;5014654;28;20033;-77
2023/07/19 05:21:19;;;;;;;4.40;1.85;;;22.40;99.90;;;;;;5013668;28;20035;-77
2023/07/19 05:23:45;;;;;;;9.52;2.25;;;22.30;99.90;;;;;;5014764;28;20060;-78
2023/07/19 05:26:11;;;;;;;8.32;2.30;;;22.10;99.90;;;;;;5014855;28;20026;-77
2023/07/19 05:28:37;;;;;;;6.03;2.22;;;21.90;99.90;;;;;;5013460;28;20365;-77
2023/07/19 05:31:03;;;;;;;3.80;1.27;;;22.00;99.90;;;;;;5013428;28;20037;-77
2023/07/19 05:33:30;;;;;;;4.68;2.00;;;22.00;99.90;;;;;;5014503;28;20088;-77
2023/07/19 05:35:56;;;;;;;5.55;1.73;;;21.90;99.90;;;;;;5014766;28;20395;-76
2023/07/19 05:38:22;;;;;;;13.45;1.98;;;22.20;99.90;;;;;;5013357;28;20113;-76
2023/07/19 05:40:47;;;;;;;3.70;1.73;;;22.40;99.90;;;;;;5014535;28;20097;-77
2023/07/19 05:43:13;;;;;;;6.43;1.60;;;22.40;99.90;;;;;;5014512;28;20088;-77
2023/07/19 05:45:39;;;;;;;3.63;1.80;;;22.50;99.90;;;;;;5014384;28;20030;-77
2023/07/19 05:48:04;;;;;;;3.63;1.40;;;22.40;99.90;;;;;;5014439;28;20475;-77
2023/07/19 05:50:30;;;;;;;3.58;1.33;;;22.10;99.90;;;;;;5014540;28;20033;-76
2023/07/19 05:52:56;;;;;;;4.70;2.33;;;22.30;99.90;;;;;;5012912;28;20022;-78
2023/07/19 05:55:21;;;;;;;5.22;1.50;;;22.50;99.90;;;;;;5013428;28;20026;-81
2023/07/19 05:57:47;;;;;;;2.38;1.70;;;22.40;99.90;;;;;;5015637;28;20064;-81
2023/07/19 06:00:24;;;;;;;5.57;1.50;;;22.10;99.90;;;;;;5015076;28;20586;-81
2023/07/19 06:02:53;;;;;;;6.97;1.42;;;21.70;99.90;;;;;;5015590;28;20372;-81
2023/07/19 06:05:19;;;;;;;2.92;1.42;;;21.40;99.90;;;;;;5013552;28;20022;-79
2023/07/19 06:07:46;;;;;;;2.15;1.48;;;21.20;99.90;;;;;;5015485;28;20018;-80
2023/07/19 06:10:12;;;;;;;4.22;1.75;;;20.90;99.90;;;;;;5014269;28;20029;-80
2023/07/19 06:12:38;;;;;;;4.15;1.70;;;20.90;99.90;;;;;;5014448;28;20061;-80
2023/07/19 06:15:05;;;;;;;6.55;1.67;;;20.80;99.90;;;;;;5013969;28;20030;-80
2023/07/19 06:17:31;;;;;;;4.18;2.58;;;20.60;99.90;;;;;;5014342;28;20120;-80
2023/07/19 06:19:56;;;;;;;3.55;1.48;;;20.60;99.90;;;;;;5013993;28;20128;-81
2023/07/19 06:22:22;;;;;;;4.13;1.55;;;20.60;99.90;;;;;;5014482;28;20022;-80
2023/07/19 06:24:48;;;;;;;3.97;1.98;;;20.60;99.90;;;;;;5015751;28;20018;-81
2023/07/19 06:27:16;;;;;;;6.35;2.20;;;20.50;99.90;;;;;;5015494;28;20028;-80
2023/07/19 06:29:42;;;;;;;4.70;1.65;;;20.50;99.90;;;;;;5014377;28;20026;-81
2023/07/19 06:32:08;;;;;;;4.60;1.77;;;20.60;99.90;;;;;;5015062;28;20038;-81
2023/07/19 06:34:34;;;;;;;7.30;2.08;;;20.60;99.90;;;;;;5014483;28;20545;-80
2023/07/19 06:36:59;;;;;;;5.40;2.13;;;20.80;99.90;;;;;;5014569;28;20555;-80
2023/07/19 06:39:25;;;;;;;3.78;1.77;;;20.90;99.90;;;;;;5013558;28;20030;-80
2023/07/19 06:41:51;;;;;;;3.13;1.83;;;20.90;99.90;;;;;;5013254;28;20160;-80
2023/07/19 06:44:16;;;;;;;5.25;1.40;;;20.70;99.90;;;;;;5013044;28;20025;-80
2023/07/19 06:46:42;;;;;;;7.22;2.42;;;20.70;99.90;;;;;;5014579;28;20383;-79
2023/07/19 06:49:07;;;;;;;6.72;1.83;;;20.90;99.90;;;;;;5014477;28;20030;-80
2023/07/19 06:51:33;;;;;;;4.43;2.60;;;21.10;99.90;;;;;;5014575;28;20112;-79
2023/07/19 06:53:59;;;;;;;3.15;2.08;;;21.30;99.90;;;;;;5014139;28;20557;-80
2023/07/19 06:56:24;;;;;;;5.22;2.30;;;21.20;99.90;;;;;;5014274;28;20026;-80
2023/07/19 06:58:50;;;;;;;2.47;1.80;;;21.20;99.90;;;;;;5014237;28;20080;-80
2023/07/19 07:01:16;;;;;;;3.63;2.53;;;21.30;99.90;;;;;;5014226;28;20440;-79
2023/07/19 07:03:41;;;;;;;3.08;1.50;;;21.30;99.90;;;;;;5012745;28;20017;-79
2023/07/19 07:06:07;;;;;;;4.50;1.45;;;21.40;99.90;;;;;;5012763;28;20053;-80
2023/07/19 07:08:33;;;;;;;6.43;2.65;;;21.60;99.90;;;;;;5013103;28;20022;-79
2023/07/19 07:11:00;;;;;;;6.97;2.40;;;21.90;99.90;;;;;;5014189;28;20026;-80
2023/07/19 07:13:26;;;;;;;8.75;2.15;;;22.20;99.90;;;;;;5013855;28;20106;-80
2023/07/19 07:15:52;;;;;;;2.15;1.17;;;22.50;99.90;;;;;;5013894;28;20057;-80
2023/07/19 07:18:17;;;;;;;8.13;1.92;;;22.60;99.90;;;;;;5013978;28;20033;-79
2023/07/19 07:20:43;;;;;;;3.83;1.52;;;22.60;99.90;;;;;;5011301;28;20037;-78
2023/07/19 07:23:08;;;;;;;5.72;1.90;;;23.00;99.90;;;;;;5012908;28;20034;-78
2023/07/19 07:25:36;;;;;;;3.35;1.80;;;23.10;99.90;;;;;;5011287;28;20423;-78
2023/07/19 07:28:02;;;;;;;6.43;2.25;;;23.20;99.90;;;;;;5011998;28;20026;-79
2023/07/19 07:30:27;;;;;;;4.18;1.60;;;23.40;99.90;;;;;;5012257;28;20037;-79
2023/07/19 07:32:53;;;;;;;2.80;1.48;;;23.50;99.90;;;;;;5011861;28;20038;-77
2023/07/19 07:35:19;;;;;;;3.60;1.63;;;23.20;99.90;;;;;;5011969;28;20060;-79
2023/07/19 07:37:45;;;;;;;4.00;1.60;;;23.10;99.90;;;;;;5011656;28;20033;-78
2023/07/19 07:40:13;;;;;;;6.18;2.13;;;23.10;99.90;;;;;;5013226;28;20025;-78
2023/07/19 07:42:39;;;;;;;3.92;2.15;;;23.20;99.90;;;;;;5011437;28;20413;-77
2023/07/19 07:45:05;;;;;;;6.38;2.60;;;23.10;99.90;;;;;;5011101;28;20466;-77
2023/07/19 07:47:31;;;;;;;7.13;1.65;;;23.20;99.90;;;;;;5010920;28;20025;-76
2023/07/19 07:49:57;;;;;;;4.70;2.42;;;23.20;99.90;;;;;;5011867;28;20030;-76
2023/07/19 07:52:25;;;;;;;8.98;2.15;;;23.40;99.90;;;;;;5010542;28;20025;-75
2023/07/19 07:54:51;;;;;;;5.03;1.92;;;23.60;99.90;;;;;;5011893;28;20049;-77
2023/07/19 07:57:17;;;;;;;2.42;1.55;;;23.80;99.90;;;;;;5012429;28;20107;-75
2023/07/19 07:59:43;;;;;;;3.08;1.77;;;24.00;99.90;;;;;;5011707;28;20408;-75
2023/07/19 08:02:09;;;;;;;4.18;1.60;;;24.00;99.90;;;;;;5010741;28;20076;-77
2023/07/19 08:04:34;;;;;;;3.03;2.25;;;24.00;99.90;;;;;;5012357;28;20101;-78
2023/07/19 08:07:00;;;;;;;8.20;1.80;;;23.70;99.90;;;;;;5011289;28;20395;-77
2023/07/19 08:09:27;;;;;;;6.18;2.00;;;23.60;99.90;;;;;;5010948;28;20033;-78
2023/07/19 08:11:53;;;;;;;3.80;1.77;;;23.50;99.90;;;;;;5012344;28;20026;-78
2023/07/19 08:14:22;;;;;;;8.75;1.95;;;23.40;99.90;;;;;;5010808;28;20076;-76
2023/07/19 08:16:50;;;;;;;4.05;1.92;;;23.30;99.90;;;;;;5012406;28;20054;-78
2023/07/19 08:19:16;;;;;;;6.10;1.77;;;23.30;99.90;;;;;;5010648;28;20026;-77
2023/07/19 08:21:41;;;;;;;4.75;1.45;;;23.40;99.90;;;;;;5011832;28;20018;-77
2023/07/19 08:24:07;;;;;;;4.45;2.03;;;23.60;99.90;;;;;;5011968;28;20113;-77
2023/07/19 08:26:32;;;;;;;5.03;2.08;;;24.00;99.90;;;;;;5011788;28;20026;-74
2023/07/19 08:28:58;;;;;;;4.43;2.95;;;24.40;99.90;;;;;;5011637;28;20464;-74
2023/07/19 08:31:24;;;;;;;4.20;1.77;;;24.50;99.90;;;;;;5011049;28;20387;-76
2023/07/19 08:33:49;;;;;;;10.52;2.10;;;24.70;99.90;;;;;;5033565;23;20050;-81
2023/07/19 08:36:15;;;;;;;6.53;2.33;;;24.70;99.90;;;;;;5013778;28;20034;-82
2023/07/19 08:38:40;;;;;;;3.72;2.10;;;24.80;99.90;;;;;;5017070;28;20487;-81
2023/07/19 08:41:07;;;;;;;1.95;1.77;;;24.90;99.90;;;;;;5017208;28;20030;-81
2023/07/19 08:43:36;;;;;;;18.30;3.35;;;24.90;99.90;;;;;;5030466;28;20025;-80
2023/07/19 08:46:02;;;;;;;3.78;2.20;;;25.00;99.90;;;;;;5039300;28;20021;-79
2023/07/19 08:48:31;;;;;;;91.28;7.85;;;25.00;99.90;;;;;;5036783;28;20028;-81
2023/07/19 08:51:01;;;;;;;41.70;4.60;;;25.20;99.90;;;;;;5036385;28;20080;-82
2023/07/19 08:53:27;;;;;;;3.25;1.65;;;25.20;99.90;;;;;;5037953;28;20510;-81
2023/07/19 08:55:53;;;;;;;11.73;2.25;;;25.20;99.90;;;;;;5037381;28;20091;-80
2023/07/19 08:58:19;;;;;;;5.38;1.80;;;25.20;99.90;;;;;;5037780;28;20025;-79
2023/07/19 09:00:50;;;;;;;5.90;1.63;;;25.20;99.90;;;;;;5036478;28;20410;-80
2023/07/19 09:03:16;;;;;;;5.70;2.08;;;25.20;99.90;;;;;;5036044;28;20032;-80
2023/07/19 09:05:44;;;;;;;10.63;2.42;;;25.10;99.90;;;;;;5036860;28;20017;-77
2023/07/19 09:08:09;;;;;;;4.45;2.05;;;25.10;99.90;;;;;;5033760;28;20505;-78
2023/07/19 09:10:36;;;;;;;4.80;2.28;;;25.20;99.90;;;;;;5033918;28;20120;-78
2023/07/19 09:13:05;;;;;;;5.25;1.75;;;25.50;99.90;;;;;;5035540;28;20056;-78
2023/07/19 09:15:34;;;;;;;4.03;1.70;;;25.70;99.90;;;;;;5035464;28;20070;-78
2023/07/19 09:18:03;;;;;;;5.45;1.95;;;25.80;99.90;;;;;;5035174;28;20029;-77
2023/07/19 09:20:29;;;;;;;3.15;1.70;;;25.90;99.90;;;;;;5033892;28;20022;-79
2023/07/19 09:22:57;;;;;;;10.75;2.58;;;26.00;99.90;;;;;;5035141;28;20022;-78
2023/07/19 09:25:23;;;;;;;4.25;2.17;;;26.00;99.70;;;;;;5034644;28;20028;-78
2023/07/19 09:27:49;;;;;;;4.07;1.80;;;26.00;99.10;;;;;;5035278;28;20030;-78
2023/07/19 09:30:15;;;;;;;5.45;1.80;;;26.20;99.80;;;;;;5034780;28;20479;-77
2023/07/19 09:32:41;;;;;;;3.08;2.15;;;26.30;99.90;;;;;;5035251;28;20376;-76
2023/07/19 09:35:08;;;;;;;13.00;3.13;;;26.40;99.80;;;;;;5035207;28;20491;-77
2023/07/19 09:37:34;;;;;;;3.60;1.50;;;26.50;99.90;;;;;;5035046;28;20037;-77
2023/07/19 09:40:03;;;;;;;6.03;2.72;;;26.60;99.90;;;;;;5034802;28;20030;-77
2023/07/19 09:42:32;;;;;;;3.70;1.85;;;26.70;99.40;;;;;;5034877;28;20025;-77
2023/07/19 09:45:00;;;;;;;5.20;1.50;;;26.90;99.10;;;;;;5034864;28;20500;-77
2023/07/19 09:47:26;;;;;;;4.13;1.80;;;27.00;99.90;;;;;;5035220;28;20025;-78
2023/07/19 09:49:53;;;;;;;2.83;1.70;;;27.20;98.40;;;;;;5033231;28;20021;-78
2023/07/19 09:52:19;;;;;;;3.47;1.92;;;27.40;96.60;;;;;;5033220;28;20058;-77
2023/07/19 09:54:45;;;;;;;10.70;2.47;;;27.50;95.70;;;;;;5034560;28;20036;-79
2023/07/19 09:57:12;;;;;;;4.22;2.17;;;27.70;94.50;;;;;;5034733;28;20394;-78
2023/07/19 09:59:47;;;;;;;2.60;1.70;;;27.70;93.60;;;;;;5034536;28;20021;-78
2023/07/19 10:02:12;;;;;;;;;;;27.80;92.90;;;;;;5035084;28;20030;-77
2023/07/19 10:04:42;;;;;;;4.72;1.88;;;27.60;92.30;;;;;;5033359;28;19905;-78
2023/07/19 10:07:09;;;;;;;2.63;1.92;;;27.70;93.60;;;;;;5033056;28;20430;-78
2023/07/19 10:09:43;;;;;;;8.50;2.15;;;27.90;93.00;;;;;;5034110;28;20072;-77
2023/07/19 10:12:18;;;;;;;3.97;1.88;;;28.00;93.30;;;;;;5032706;28;20044;-78
2023/07/19 10:14:58;;;;;;;3.70;2.00;;;27.80;93.30;;;;;;5033750;28;20029;-78
2023/07/19 10:17:24;;;;;;;3.80;1.50;;;27.80;93.50;;;;;;5034167;28;20021;-78
2023/07/19 10:20:12;;;;;;;2.65;2.35;;;28.10;94.60;;;;;;5034157;28;20022;-77
2023/07/19 10:22:56;;;;;;;4.78;1.88;;;28.10;94.50;;;;;;5012794;28;20037;-78
2023/07/19 10:25:31;;;;;;;4.07;2.03;;;28.40;93.20;;;;;;5012558;28;20372;-77
2023/07/19 10:28:08;;;;;;;8.18;1.95;;;28.30;91.90;;;;;;5013839;28;20029;-77
2023/07/19 10:31:00;;;;;;;3.15;1.67;;;28.30;90.80;;;;;;5013674;28;20034;-77
2023/07/19 10:33:28;;;;;;;3.63;2.03;;;28.50;90.80;;;;;;5013338;28;20041;-77
2023/07/19 10:36:05;;;;;;;2.20;1.63;;;28.20;89.60;;;;;;5012375;28;20080;-77
2023/07/19 10:38:31;;;;;;;5.30;1.73;;;28.40;91.00;;;;;;5012779;28;20516;-78
2023/07/19 10:41:02;;;;;;;2.85;1.70;;;28.70;90.60;;;;;;5012578;28;20033;-78
2023/07/19 10:43:30;;;;;;;3.47;1.85;;;28.80;90.20;;;;;;5013265;28;20049;-77
2023/07/19 10:45:59;;;;;;;7.80;2.53;;;28.70;88.40;;;;;;5013882;28;20036;-78
2023/07/19 10:48:28;;;;;;;4.25;1.67;;;28.60;89.80;;;;;;5012405;28;20026;-78
2023/07/19 10:50:58;;;;;;;5.65;1.70;;;28.40;86.40;;;;;;5013655;28;20029;-77
2023/07/19 10:53:25;;;;;;;3.60;1.73;;;28.40;85.70;;;;;;5013398;28;20116;-76
2023/07/19 10:55:54;;;;;;;9.52;2.47;;;28.50;87.10;;;;;;5028216;28;20033;-78
2023/07/19 10:58:21;;;;;;;8.30;1.98;;;28.40;86.50;;;;;;5033551;28;20561;-78
2023/07/19 11:00:47;;;;;;;4.30;1.83;;;28.40;88.50;;;;;;5033009;28;20029;-78
2023/07/19 11:03:14;;;;;;;3.30;1.60;;;28.80;90.10;;;;;;5033514;28;20063;-78
2023/07/19 11:05:47;;;;;;;5.30;3.17;;;28.90;88.30;;;;;;5031798;28;20376;-78
2023/07/19 11:08:23;;;;;;;4.68;1.70;;;29.20;88.00;;;;;;5033199;28;20096;-78
2023/07/19 11:10:50;;;;;;;3.30;1.90;;;29.40;86.10;;;;;;5031712;28;20025;-78
2023/07/19 11:13:17;;;;;;;3.13;1.92;;;29.20;84.00;;;;;;5032932;28;20041;-77
2023/07/19 11:15:50;;;;;;;5.72;2.38;;;29.50;83.40;;;;;;5033359;28;20022;-78
2023/07/19 11:18:42;;;;;;;2.58;2.05;;;29.70;90.20;;;;;;5031624;28;20037;-78
2023/07/19 11:21:09;;;;;;;4.53;2.53;;;29.70;89.40;;;;;;5030835;28;20042;-78
2023/07/19 11:23:41;;;;;;;2.80;1.65;;;29.80;84.90;;;;;;5031455;28;20033;-78
2023/07/19 11:26:16;;;;;;;2.97;1.42;;;30.00;81.40;;;;;;5033038;28;20040;-77
2023/07/19 11:29:00;;;;;;;6.45;1.63;;;30.00;83.50;;;;;;5033365;28;20049;-77
2023/07/19 11:31:33;;;;;;;3.08;2.13;;;30.10;85.20;;;;;;5033167;28;20029;-77
2023/07/19 11:34:16;;;;;;;2.22;1.80;;;30.20;88.80;;;;;;5031234;28;20514;-78
2023/07/19 11:36:44;;;;;;;3.25;1.85;;;30.20;88.40;;;;;;5032795;28;20075;-76
2023/07/19 11:39:14;;;;;;;3.95;1.80;;;30.50;86.80;;;;;;5032556;28;20032;-77
2023/07/19 11:41:41;;;;;;;5.75;2.28;;;30.60;86.50;;;;;;5033225;28;20029;-78
2023/07/19 11:44:16;;;;;;;5.72;1.90;;;30.50;86.40;;;;;;5033130;28;20100;-77
2023/07/19 11:46:42;;;;;;;6.75;2.10;;;30.40;84.10;;;;;;5032780;28;20021;-77
2023/07/19 11:49:10;;;;;;;7.75;2.00;;;30.40;80.20;;;;;;5031213;28;20022;-77
2023/07/19 11:51:36;;;;;;;6.32;2.28;;;30.10;80.60;;;;;;5032555;28;20033;-77
2023/07/19 11:54:03;;;;;;;3.28;1.88;;;30.10;82.70;;;;;;5031242;28;20116;-78
2023/07/19 11:56:29;;;;;;;3.28;1.42;;;29.90;81.60;;;;;;5032701;28;20025;-78
2023/07/19 11:58:55;;;;;;;3.60;1.42;;;29.80;81.00;;;;;;5032433;28;20483;-77
2023/07/19 12:01:21;;;;;;;4.22;1.95;;;29.60;84.60;;;;;;5032332;28;20032;-77
2023/07/19 12:03:47;;;;;;;4.75;1.67;;;29.30;86.90;;;;;;5030856;28;20021;-77
2023/07/19 12:06:14;;;;;;;5.88;2.00;;;29.40;87.10;;;;;;5032411;28;20118;-78
2023/07/19 12:08:41;;;;;;;3.72;1.90;;;29.40;89.00;;;;;;5030892;28;20108;-77
2023/07/19 12:11:07;;;;;;;2.70;2.50;;;29.40;87.00;;;;;;5032791;28;20113;-77
2023/07/19 12:13:33;;;;;;;2.95;2.05;;;29.20;86.20;;;;;;5036293;28;20057;-77
2023/07/19 12:16:00;;;;;;;5.40;1.60;;;29.30;90.10;;;;;;5034963;28;20060;-77
2023/07/19 12:18:26;;;;;;;4.78;1.63;;;29.50;89.20;;;;;;5034947;28;20060;-78
2023/07/19 12:20:52;;;;;;;3.97;1.60;;;29.50;87.60;;;;;;5036022;28;20025;-77
2023/07/19 12:23:17;;;;;;;4.07;1.67;;;29.70;85.30;;;;;;5036246;28;20021;-78
2023/07/19 12:25:43;;;;;;;3.53;1.70;;;29.60;88.50;;;;;;5034971;28;20491;-77
2023/07/19 12:28:09;;;;;;;4.80;1.90;;;29.50;89.20;;;;;;5036316;28;20391;-77
2023/07/19 12:30:34;;;;;;;2.95;1.70;;;29.40;90.80;;;;;;5036109;28;20025;-78
2023/07/19 12:33:01;;;;;;;3.80;1.67;;;29.20;91.30;;;;;;5036483;28;20414;-77
2023/07/19 12:35:26;;;;;;;6.28;2.15;;;29.20;91.50;;;;;;5036303;28;20075;-79
2023/07/19 12:37:52;;;;;;;6.70;1.90;;;29.10;92.00;;;;;;5036439;28;20026;-80
2023/07/19 12:40:18;;;;;;;3.20;2.17;;;29.20;91.70;;;;;;5034903;28;20033;-78
2023/07/19 12:42:43;;;;;;;1.83;1.33;;;29.00;91.90;;;;;;5034552;28;20499;-78